Time;durP1;ratioP1;P1;durP2;ratioP2;P2;SDS_P1;SDS_P2;PMS_P1;PMS_P2;Temp;Humidity;BMP_temperature;BMP_pressure;BME280_temperature;BME280_humidity;BME280_pressure;Samples;Min_cycle;Max_cycle;Signal;HPM_P1;HPM_P2
2021/07/24 00:00:52;;;;;;;20.13;11.95;;;16.20;99.90;;;;;;5094525;28;20054;-73
2021/07/24 00:03:18;;;;;;;20.10;12.35;;;16.20;99.90;;;;;;5095868;28;20404;-73
2021/07/24 00:05:43;;;;;;;20.15;12.20;;;16.20;99.90;;;;;;5077149;28;20114;-73
2021/07/24 00:08:09;;;;;;;22.27;12.68;;;16.10;99.90;;;;;;5095694;28;20081;-72
2021/07/24 00:10:34;;;;;;;20.83;13.25;;;16.10;99.90;;;;;;5095699;28;20513;-72
2021/07/24 00:13:00;;;;;;;17.88;12.00;;;16.10;99.90;;;;;;5093811;28;20587;-72
2021/07/24 00:15:25;;;;;;;21.98;11.85;;;16.10;99.90;;;;;;5095576;28;20518;-72
2021/07/24 00:17:51;;;;;;;19.98;12.40;;;16.00;99.90;;;;;;5093753;28;20118;-72
2021/07/24 00:20:16;;;;;;;19.13;11.82;;;16.00;99.90;;;;;;5095242;28;20058;-72
2021/07/24 00:22:42;;;;;;;19.73;11.93;;;16.00;99.90;;;;;;5095476;28;20077;-72
2021/07/24 00:25:08;;;;;;;20.95;12.20;;;16.00;99.90;;;;;;5095425;28;20127;-72
2021/07/24 00:27:33;;;;;;;18.80;12.52;;;16.00;99.90;;;;;;5095031;28;20449;-72
2021/07/24 00:29:59;;;;;;;21.73;12.43;;;16.00;99.90;;;;;;5095348;28;20099;-73
2021/07/24 00:32:26;;;;;;;18.10;11.57;;;16.00;99.90;;;;;;5094274;28;20016;-72
2021/07/24 00:34:52;;;;;;;19.95;12.73;;;16.00;99.90;;;;;;5095002;28;20020;-72
2021/07/24 00:37:20;;;;;;;19.40;11.73;;;16.00;99.90;;;;;;5095223;28;20073;-72
2021/07/24 00:39:46;;;;;;;20.60;12.57;;;16.00;99.90;;;;;;5095142;28;20078;-72
2021/07/24 00:42:20;;;;;;;22.05;13.13;;;15.90;99.90;;;;;;5095083;28;20024;-72
2021/07/24 00:44:47;;;;;;;18.83;11.70;;;16.00;99.90;;;;;;5094765;28;20436;-73
2021/07/24 00:47:17;;;;;;;17.95;11.32;;;16.00;99.90;;;;;;5093275;28;20493;-72
2021/07/24 00:49:45;;;;;;;16.70;11.80;;;16.00;99.90;;;;;;5093855;28;20427;-72
2021/07/24 00:52:11;;;;;;;16.90;12.20;;;16.00;99.90;;;;;;5094926;28;20044;-72
2021/07/24 00:54:39;;;;;;;19.17;12.25;;;15.90;99.90;;;;;;5093460;28;20055;-72
2021/07/24 00:57:05;;;;;;;17.30;11.68;;;15.90;99.90;;;;;;5092610;28;20501;-72
2021/07/24 00:59:30;;;;;;;16.50;11.43;;;15.90;99.90;;;;;;5094515;28;20024;-72
2021/07/24 01:01:56;;;;;;;17.85;11.70;;;15.90;99.90;;;;;;5094722;28;20028;-72
2021/07/24 01:04:21;;;;;;;18.55;12.25;;;15.90;99.90;;;;;;5092892;28;20028;-72
2021/07/24 01:06:49;;;;;;;18.77;11.63;;;15.90;99.90;;;;;;5093992;28;20032;-72
2021/07/24 01:09:15;;;;;;;19.33;11.70;;;15.90;99.90;;;;;;5094612;28;20024;-72
2021/07/24 01:11:41;;;;;;;20.65;12.80;;;15.80;99.90;;;;;;5093159;28;20016;-72
2021/07/24 01:14:07;;;;;;;16.27;11.48;;;15.80;99.90;;;;;;5094000;28;20373;-72
2021/07/24 01:16:33;;;;;;;19.20;12.27;;;15.80;99.90;;;;;;5094239;28;20081;-72
2021/07/24 01:18:58;;;;;;;23.08;12.18;;;15.70;99.90;;;;;;5094446;28;20024;-72
2021/07/24 01:21:26;;;;;;;18.02;11.63;;;15.70;99.90;;;;;;5093434;28;20045;-72
2021/07/24 01:23:52;;;;;;;19.55;11.50;;;15.70;99.90;;;;;;5094446;28;20111;-72
2021/07/24 01:26:26;;;;;;;21.67;12.73;;;15.60;99.90;;;;;;5093968;28;20508;-72
2021/07/24 01:28:52;;;;;;;17.27;11.43;;;15.60;99.90;;;;;;5094333;28;20032;-72
2021/07/24 01:31:18;;;;;;;18.92;12.77;;;15.50;99.90;;;;;;5094026;28;20027;-72
2021/07/24 01:33:43;;;;;;;18.77;12.48;;;15.50;99.90;;;;;;5094263;28;20026;-72
2021/07/24 01:36:09;;;;;;;19.23;12.63;;;15.50;99.90;;;;;;5093957;28;20130;-72
2021/07/24 01:38:39;;;;;;;20.23;12.77;;;15.50;99.90;;;;;;5093946;28;20020;-72
2021/07/24 01:41:07;;;;;;;21.65;13.23;;;15.50;99.90;;;;;;5094215;28;20051;-72
2021/07/24 01:43:32;;;;;;;25.35;13.65;;;15.50;99.90;;;;;;5094226;28;20035;-72
2021/07/24 01:45:58;;;;;;;23.83;12.77;;;15.40;99.90;;;;;;5093939;28;20020;-73
2021/07/24 01:48:44;;;;;;;18.05;12.48;;;15.40;99.90;;;;;;5092575;28;20032;-73
2021/07/24 01:53:57;;;;;;;19.13;12.70;;;15.40;99.90;;;;;;5093405;28;20024;-72
2021/07/24 01:56:27;;;;;;;20.80;12.88;;;15.30;99.90;;;;;;5094075;28;20449;-72
2021/07/24 01:58:53;;;;;;;18.75;12.38;;;15.30;99.90;;;;;;5092624;28;20020;-72
2021/07/24 02:01:21;;;;;;;19.50;13.20;;;15.30;99.90;;;;;;5094038;28;20030;-72
2021/07/24 02:03:58;;;;;;;22.00;13.02;;;15.30;99.90;;;;;;5094003;28;20044;-72
2021/07/24 02:06:24;;;;;;;20.08;12.95;;;15.20;99.90;;;;;;5093934;28;20103;-72
2021/07/24 02:08:51;;;;;;;23.73;13.52;;;15.30;99.90;;;;;;5095639;28;20426;-72
2021/07/24 02:11:18;;;;;;;21.45;12.90;;;15.30;99.90;;;;;;5096607;28;20153;-72
2021/07/24 02:13:47;;;;;;;21.17;13.23;;;15.20;99.90;;;;;;5079514;28;20376;-72
2021/07/24 02:16:12;;;;;;;18.50;12.15;;;15.20;99.90;;;;;;5097392;28;20016;-72
2021/07/24 02:18:40;;;;;;;20.52;12.63;;;15.20;99.90;;;;;;5097897;28;20024;-72
2021/07/24 02:21:07;;;;;;;20.13;12.32;;;15.20;99.90;;;;;;5097580;28;20019;-72
2021/07/24 02:23:33;;;;;;;21.58;12.73;;;15.20;99.90;;;;;;5097842;28;20365;-72
2021/07/24 02:25:58;;;;;;;18.38;12.40;;;15.10;99.90;;;;;;5097430;28;20025;-72
2021/07/24 02:28:24;;;;;;;19.63;13.10;;;15.10;99.90;;;;;;5096173;28;20111;-72
2021/07/24 02:30:49;;;;;;;21.77;12.52;;;15.10;99.90;;;;;;5096237;28;20016;-73
2021/07/24 02:33:15;;;;;;;22.58;12.60;;;15.10;99.90;;;;;;5097604;28;20535;-72
2021/07/24 02:35:41;;;;;;;18.15;12.13;;;15.00;99.90;;;;;;5097529;28;20076;-72
2021/07/24 02:38:07;;;;;;;19.50;12.50;;;15.00;99.90;;;;;;5097227;28;20028;-72
2021/07/24 02:40:33;;;;;;;15.88;11.52;;;15.00;99.90;;;;;;5096317;28;20099;-72
2021/07/24 02:42:59;;;;;;;20.38;12.13;;;14.90;99.90;;;;;;5097407;28;20027;-72
2021/07/24 02:45:24;;;;;;;19.20;12.98;;;14.90;99.90;;;;;;5097124;28;20031;-72
2021/07/24 02:47:50;;;;;;;19.42;12.48;;;14.90;99.90;;;;;;5096607;28;20093;-72
2021/07/24 02:50:16;;;;;;;20.27;12.43;;;14.80;99.90;;;;;;5096987;28;20023;-72
2021/07/24 02:52:42;;;;;;;22.40;13.70;;;14.80;99.90;;;;;;5097295;28;20062;-72
2021/07/24 02:55:08;;;;;;;19.30;12.10;;;14.70;99.90;;;;;;5096633;28;20012;-72
2021/07/24 02:57:34;;;;;;;18.95;12.40;;;14.70;99.90;;;;;;5097113;28;20021;-72
2021/07/24 02:59:59;;;;;;;19.52;12.57;;;14.70;99.90;;;;;;5096827;28;20054;-72
2021/07/24 03:02:25;;;;;;;16.70;11.98;;;14.70;99.90;;;;;;5097057;28;20123;-72
2021/07/24 03:04:50;;;;;;;17.02;11.43;;;14.70;99.90;;;;;;5095192;28;20024;-72
2021/07/24 03:07:16;;;;;;;19.13;12.77;;;14.70;99.90;;;;;;5096872;28;20028;-72
2021/07/24 03:09:41;;;;;;;20.25;12.27;;;14.70;99.90;;;;;;5095472;28;20020;-72
2021/07/24 03:12:07;;;;;;;20.13;13.15;;;14.60;99.90;;;;;;5096856;28;20020;-72
2021/07/24 03:14:33;;;;;;;24.38;12.90;;;14.50;99.90;;;;;;5096848;28;20093;-72
2021/07/24 03:16:58;;;;;;;24.92;13.27;;;14.50;99.90;;;;;;5096760;28;20524;-72
2021/07/24 03:19:24;;;;;;;18.70;12.95;;;14.50;99.90;;;;;;5096238;28;20028;-72
2021/07/24 03:21:50;;;;;;;21.60;13.82;;;14.50;99.90;;;;;;5096316;28;20028;-72
2021/07/24 03:24:16;;;;;;;23.13;13.63;;;14.50;99.90;;;;;;5096613;28;20034;-72
2021/07/24 03:26:42;;;;;;;20.83;13.48;;;14.50;99.90;;;;;;5096556;28;20030;-72
2021/07/24 03:29:08;;;;;;;21.67;13.80;;;14.60;99.90;;;;;;5096531;28;20024;-72
2021/07/24 03:31:34;;;;;;;25.83;14.30;;;14.60;99.90;;;;;;5095093;28;20097;-72
2021/07/24 03:33:59;;;;;;;24.50;14.52;;;14.60;99.90;;;;;;5096497;28;20051;-72
2021/07/24 03:36:25;;;;;;;23.40;13.75;;;14.60;99.90;;;;;;5096427;28;20031;-72
2021/07/24 03:38:51;;;;;;;26.30;14.35;;;14.60;99.90;;;;;;5095924;28;20020;-72
2021/07/24 03:41:16;;;;;;;22.60;14.50;;;14.60;99.90;;;;;;5096295;28;20457;-72
2021/07/24 03:43:42;;;;;;;21.88;14.85;;;14.60;99.90;;;;;;5095714;28;20039;-72
2021/07/24 03:46:25;;;;;;;21.17;15.07;;;14.60;99.90;;;;;;5094484;28;20040;-72
2021/07/24 03:48:52;;;;;;;24.08;14.63;;;14.60;99.90;;;;;;5096236;28;20020;-72
2021/07/24 03:51:17;;;;;;;25.95;14.55;;;14.60;99.90;;;;;;5096104;28;20027;-72
2021/07/24 03:53:43;;;;;;;21.85;14.15;;;14.60;99.90;;;;;;5094360;28;20024;-72
2021/07/24 03:56:18;;;;;;;19.25;13.75;;;14.60;99.90;;;;;;5095756;28;20032;-72
2021/07/24 03:58:45;;;;;;;19.67;13.23;;;14.60;99.90;;;;;;5094238;28;20021;-72
2021/07/24 04:01:11;;;;;;;21.00;12.95;;;14.60;99.90;;;;;;5095916;28;20024;-72
2021/07/24 04:03:37;;;;;;;19.77;13.45;;;14.60;99.90;;;;;;5095595;28;20377;-72
2021/07/24 04:06:04;;;;;;;26.75;13.77;;;14.60;99.90;;;;;;5095592;28;20027;-72
2021/07/24 04:08:31;;;;;;;21.42;13.52;;;14.70;99.90;;;;;;5095752;28;20103;-72
2021/07/24 04:10:58;;;;;;;19.45;12.55;;;14.70;99.90;;;;;;5094315;28;20051;-72
2021/07/24 04:13:23;;;;;;;23.23;13.20;;;14.80;99.90;;;;;;5095418;28;20024;-72
2021/07/24 04:15:49;;;;;;;17.42;12.70;;;14.80;99.90;;;;;;5093761;28;20020;-72
2021/07/24 04:18:14;;;;;;;18.58;12.60;;;14.80;99.90;;;;;;5095598;28;20028;-72
2021/07/24 04:20:41;;;;;;;20.95;12.75;;;14.90;99.90;;;;;;5095554;28;20047;-72
2021/07/24 04:23:07;;;;;;;19.92;12.40;;;15.00;99.90;;;;;;5095503;28;20096;-72
2021/07/24 04:25:33;;;;;;;18.00;11.77;;;15.10;99.90;;;;;;5094933;28;20529;-72
2021/07/24 04:27:58;;;;;;;17.67;11.77;;;15.30;99.90;;;;;;5093886;28;20024;-72
2021/07/24 04:30:24;;;;;;;19.15;11.63;;;15.40;99.90;;;;;;5094551;28;20130;-72
2021/07/24 04:32:49;;;;;;;18.60;11.27;;;15.50;99.90;;;;;;5095016;28;20021;-72
2021/07/24 04:35:15;;;;;;;16.40;11.38;;;15.60;99.90;;;;;;5095226;28;20032;-72
2021/07/24 04:37:41;;;;;;;21.90;11.88;;;15.70;99.90;;;;;;5094627;28;20028;-72
2021/07/24 04:40:07;;;;;;;17.15;10.80;;;15.80;99.90;;;;;;5094901;28;20431;-73
2021/07/24 04:42:33;;;;;;;17.05;11.25;;;16.10;99.90;;;;;;5095129;28;20020;-73
2021/07/24 04:44:59;;;;;;;16.27;10.95;;;16.50;99.90;;;;;;5095096;28;20477;-73
2021/07/24 04:47:25;;;;;;;14.10;9.30;;;17.10;99.90;;;;;;5094398;28;20054;-73
2021/07/24 04:49:52;;;;;;;14.60;9.10;;;17.70;99.90;;;;;;5093576;28;20091;-73
2021/07/24 04:52:19;;;;;;;14.40;9.45;;;17.70;99.90;;;;;;5093486;28;20026;-73
2021/07/24 04:54:46;;;;;;;17.30;9.75;;;17.50;99.90;;;;;;5094610;28;20070;-73
2021/07/24 04:57:13;;;;;;;14.20;10.38;;;17.30;99.90;;;;;;5093333;28;20020;-73
2021/07/24 04:59:46;;;;;;;14.70;10.40;;;17.30;99.90;;;;;;5094826;28;20020;-73
2021/07/24 05:02:15;;;;;;;17.52;9.60;;;17.60;99.90;;;;;;5094824;28;20032;-73
2021/07/24 05:04:42;;;;;;;14.30;9.30;;;18.20;99.90;;;;;;5094703;28;20473;-73
2021/07/24 05:07:07;;;;;;;13.52;8.63;;;18.60;99.90;;;;;;5094613;28;20024;-73
2021/07/24 05:09:33;;;;;;;11.93;9.10;;;18.80;99.90;;;;;;5094662;28;20023;-73
2021/07/24 05:11:58;;;;;;;13.18;8.82;;;18.60;99.90;;;;;;5094039;28;20043;-73
2021/07/24 05:14:24;;;;;;;12.55;9.75;;;18.30;99.90;;;;;;5092820;28;20032;-73
2021/07/24 05:16:49;;;;;;;15.27;9.88;;;17.80;99.90;;;;;;5094569;28;20032;-73
2021/07/24 05:19:15;;;;;;;15.98;10.20;;;17.30;99.90;;;;;;5094459;28;20457;-73
2021/07/24 05:21:40;;;;;;;15.02;10.85;;;17.00;99.90;;;;;;5093868;28;20028;-73
2021/07/24 05:24:06;;;;;;;17.77;10.20;;;16.90;99.90;;;;;;5094401;28;20077;-73
2021/07/24 05:26:31;;;;;;;15.68;9.85;;;16.80;99.90;;;;;;5093134;28;20032;-73
2021/07/24 05:28:57;;;;;;;15.30;10.35;;;17.00;99.90;;;;;;5094113;28;20063;-73
2021/07/24 05:31:22;;;;;;;16.02;10.02;;;17.20;99.90;;;;;;5094359;28;20024;-73
2021/07/24 05:33:48;;;;;;;14.55;9.95;;;17.80;99.90;;;;;;5075725;28;20107;-73
2021/07/24 05:36:15;;;;;;;12.82;8.82;;;18.90;99.90;;;;;;5092836;28;20024;-73
2021/07/24 05:38:41;;;;;;;13.50;8.30;;;20.10;99.90;;;;;;5093961;28;20117;-74
2021/07/24 05:41:07;;;;;;;11.73;7.65;;;21.20;99.90;;;;;;5093654;28;20020;-73
2021/07/24 05:43:32;;;;;;;9.80;7.65;;;21.90;99.90;;;;;;5094053;28;20407;-73
2021/07/24 05:46:01;;;;;;;10.32;7.30;;;22.70;99.90;;;;;;5093629;28;20028;-74
2021/07/24 05:48:26;;;;;;;10.10;6.72;;;23.10;99.90;;;;;;5092198;28;20098;-74
2021/07/24 05:50:52;;;;;;;9.52;7.07;;;23.90;99.90;;;;;;5093840;28;20030;-74
2021/07/24 05:53:17;;;;;;;11.93;6.93;;;24.40;99.90;;;;;;5094096;28;20461;-74
2021/07/24 05:55:43;;;;;;;7.85;6.80;;;23.50;99.90;;;;;;5094081;28;20137;-74
2021/07/24 05:58:08;;;;;;;11.32;6.80;;;24.40;99.90;;;;;;5094014;28;20107;-74
2021/07/24 06:00:34;;;;;;;8.65;6.95;;;25.00;99.90;;;;;;5094051;28;20024;-74
2021/07/24 06:02:59;;;;;;;10.43;6.90;;;24.60;99.90;;;;;;5094025;28;20032;-74
2021/07/24 06:05:26;;;;;;;7.32;6.60;;;25.10;99.90;;;;;;5092504;28;20531;-74
2021/07/24 06:07:51;;;;;;;9.85;7.15;;;24.50;99.90;;;;;;5092076;28;20020;-75
2021/07/24 06:10:17;;;;;;;10.45;7.07;;;24.10;99.90;;;;;;5093883;28;20454;-75
2021/07/24 06:12:46;;;;;;;8.15;6.47;;;24.40;99.90;;;;;;5092735;28;20041;-75
2021/07/24 06:15:12;;;;;;;10.43;7.18;;;25.00;99.90;;;;;;5093580;28;20418;-75
2021/07/24 06:17:37;;;;;;;9.30;7.05;;;24.70;99.90;;;;;;5091967;28;20024;-75
2021/07/24 06:20:03;;;;;;;10.70;7.13;;;24.60;99.90;;;;;;5091970;28;20024;-75
2021/07/24 06:22:29;;;;;;;12.38;7.20;;;25.30;99.90;;;;;;5093788;28;20375;-75
2021/07/24 06:24:54;;;;;;;10.60;7.47;;;25.30;99.90;;;;;;5093733;28;20028;-75
2021/07/24 06:27:20;;;;;;;11.43;7.03;;;25.30;99.90;;;;;;5093709;28;20041;-75
2021/07/24 06:29:45;;;;;;;9.23;6.97;;;25.70;99.90;;;;;;5092695;28;20439;-75
2021/07/24 06:32:11;;;;;;;9.70;7.60;;;25.00;99.90;;;;;;5093684;28;20020;-75
2021/07/24 06:34:36;;;;;;;9.07;7.10;;;25.30;99.90;;;;;;5093112;28;20024;-75
2021/07/24 06:37:02;;;;;;;10.07;6.97;;;25.80;99.90;;;;;;5093661;28;20028;-75
2021/07/24 06:39:28;;;;;;;10.10;7.55;;;25.50;99.90;;;;;;5092619;28;20054;-75
2021/07/24 06:41:53;;;;;;;10.52;7.18;;;25.00;99.90;;;;;;5091854;28;20128;-75
2021/07/24 06:44:20;;;;;;;9.82;7.53;;;25.40;99.90;;;;;;5093554;28;20024;-75
2021/07/24 06:46:46;;;;;;;12.00;8.35;;;25.10;99.90;;;;;;5093065;28;20044;-75
2021/07/24 06:49:12;;;;;;;9.82;7.53;;;25.40;99.90;;;;;;5093210;28;20526;-75
2021/07/24 06:51:41;;;;;;;12.20;8.55;;;25.10;99.90;;;;;;5093541;28;20046;-75
2021/07/24 06:54:06;;;;;;;11.35;7.97;;;25.20;99.90;;;;;;5093571;28;20078;-75
2021/07/24 06:56:33;;;;;;;10.32;7.93;;;25.60;99.90;;;;;;5097192;28;20484;-76
2021/07/24 06:58:58;;;;;;;10.77;8.23;;;25.60;99.90;;;;;;5096671;28;20474;-76
2021/07/24 07:01:24;;;;;;;10.73;7.60;;;25.90;99.90;;;;;;5095949;28;20024;-76
2021/07/24 07:03:49;;;;;;;10.57;8.45;;;26.20;99.90;;;;;;5097026;28;20454;-76
2021/07/24 07:06:15;;;;;;;9.85;7.63;;;26.10;99.90;;;;;;5096373;28;20024;-76
2021/07/24 07:08:41;;;;;;;9.85;8.07;;;26.90;99.90;;;;;;5096962;28;20106;-76
2021/07/24 07:11:06;;;;;;;12.18;7.35;;;27.00;99.90;;;;;;5095150;28;20031;-76
2021/07/24 07:13:33;;;;;;;13.77;7.80;;;27.20;99.90;;;;;;5095162;28;20059;-76
2021/07/24 07:16:03;;;;;;;10.38;8.10;;;27.30;99.90;;;;;;5097131;28;20016;-76
2021/07/24 07:18:29;;;;;;;11.20;8.43;;;27.40;99.90;;;;;;5094989;28;20028;-76
2021/07/24 07:20:54;;;;;;;9.18;7.85;;;26.70;99.90;;;;;;5096731;28;20036;-74
2021/07/24 07:23:20;;;;;;;10.05;8.07;;;26.80;99.90;;;;;;5095238;28;20373;-75
2021/07/24 07:25:46;;;;;;;10.77;8.20;;;26.90;99.90;;;;;;5095451;28;20081;-75
2021/07/24 07:28:12;;;;;;;9.30;8.05;;;26.80;99.90;;;;;;5096275;28;20047;-76
2021/07/24 07:30:37;;;;;;;10.15;8.43;;;27.40;99.90;;;;;;5096514;28;20366;-76
2021/07/24 07:33:03;;;;;;;12.25;8.13;;;26.50;99.90;;;;;;5096525;28;20050;-75
2021/07/24 07:35:28;;;;;;;10.40;7.82;;;26.50;99.90;;;;;;5094737;28;20024;-76
2021/07/24 07:37:56;;;;;;;9.43;8.38;;;26.50;99.90;;;;;;5096379;28;20028;-75
2021/07/24 07:40:22;;;;;;;10.60;8.48;;;27.30;99.90;;;;;;5095815;28;20028;-76
2021/07/24 07:42:48;;;;;;;12.82;9.07;;;27.30;99.90;;;;;;5095716;28;20487;-76
2021/07/24 07:45:13;;;;;;;9.60;8.40;;;27.90;99.90;;;;;;5095106;28;20031;-76
2021/07/24 07:47:39;;;;;;;11.45;8.65;;;28.20;99.90;;;;;;5095509;28;20075;-76
2021/07/24 07:50:06;;;;;;;9.68;8.63;;;28.20;99.90;;;;;;5096169;28;20411;-76
2021/07/24 07:52:31;;;;;;;12.23;9.02;;;28.30;99.90;;;;;;5094668;28;20123;-76
2021/07/24 07:54:57;;;;;;;10.35;9.15;;;27.40;99.90;;;;;;5095105;28;20525;-76
2021/07/24 07:57:25;;;;;;;10.80;8.48;;;26.70;99.90;;;;;;5094226;28;20028;-76
2021/07/24 07:59:51;;;;;;;11.32;9.35;;;26.50;99.90;;;;;;5096049;28;20016;-75
2021/07/24 08:02:16;;;;;;;13.02;9.05;;;26.40;99.90;;;;;;5094760;28;20051;-75
2021/07/24 08:04:42;;;;;;;11.52;9.40;;;26.50;99.90;;;;;;5095849;28;20062;-76
2021/07/24 08:07:07;;;;;;;12.43;9.52;;;26.90;99.90;;;;;;5095723;28;20035;-75
2021/07/24 08:09:33;;;;;;;13.20;9.45;;;26.90;99.90;;;;;;5095776;28;20031;-75
2021/07/24 08:11:58;;;;;;;12.50;9.50;;;27.00;99.90;;;;;;5095707;28;20035;-75
2021/07/24 08:14:24;;;;;;;13.02;9.40;;;26.70;99.90;;;;;;5095809;28;20039;-75
2021/07/24 08:16:49;;;;;;;10.43;9.32;;;26.40;99.90;;;;;;5095302;28;20028;-75
2021/07/24 08:19:15;;;;;;;17.98;8.88;;;26.50;99.90;;;;;;5095579;28;20369;-75
2021/07/24 08:21:40;;;;;;;13.43;10.00;;;26.20;99.90;;;;;;5094278;28;20377;-75
2021/07/24 08:24:06;;;;;;;11.45;8.88;;;25.70;99.90;;;;;;5094419;28;20035;-75
2021/07/24 08:26:31;;;;;;;17.65;9.70;;;26.00;99.90;;;;;;5095074;28;20024;-75
2021/07/24 08:28:57;;;;;;;13.48;9.77;;;25.60;99.90;;;;;;5095388;28;20024;-75
2021/07/24 08:31:22;;;;;;;13.45;9.98;;;25.60;99.90;;;;;;5095095;28;20462;-75
2021/07/24 08:33:48;;;;;;;14.40;10.20;;;25.90;99.90;;;;;;5094771;28;20095;-75
2021/07/24 08:36:13;;;;;;;12.10;9.25;;;26.30;99.90;;;;;;5095228;28;20024;-76
2021/07/24 08:38:39;;;;;;;13.52;8.90;;;26.10;99.90;;;;;;5095482;28;20024;-75
2021/07/24 08:41:04;;;;;;;12.30;9.60;;;26.50;99.90;;;;;;5077271;28;20024;-75
2021/07/24 08:43:30;;;;;;;15.20;9.43;;;26.30;99.90;;;;;;5093301;28;20396;-76
2021/07/24 08:45:56;;;;;;;11.52;8.98;;;26.50;99.90;;;;;;5094809;28;20035;-75
2021/07/24 08:48:22;;;;;;;13.63;9.60;;;27.00;99.90;;;;;;5093506;28;20061;-75
2021/07/24 08:50:49;;;;;;;17.63;9.45;;;27.00;99.90;;;;;;5094713;28;20027;-75
2021/07/24 08:53:23;;;;;;;10.35;8.90;;;27.90;99.90;;;;;;5076484;28;20024;-76
2021/07/24 08:55:48;;;;;;;12.70;8.50;;;28.80;99.90;;;;;;5094614;28;20111;-75
2021/07/24 08:58:16;;;;;;;10.73;8.60;;;29.10;99.90;;;;;;5094735;28;20089;-75
2021/07/24 09:00:43;;;;;;;9.75;8.75;;;28.90;99.90;;;;;;5094456;28;20470;-75
2021/07/24 09:03:18;;;;;;;11.07;8.88;;;28.70;99.90;;;;;;5094653;28;20028;-76
2021/07/24 09:05:49;;;;;;;11.40;8.77;;;29.30;99.90;;;;;;5094117;28;20028;-75
2021/07/24 09:08:16;;;;;;;9.63;8.63;;;30.40;99.90;;;;;;5094418;28;20032;-75
2021/07/24 09:10:44;;;;;;;10.48;9.00;;;30.80;99.90;;;;;;5093110;28;20031;-76
2021/07/24 09:13:10;;;;;;;12.48;8.40;;;31.10;99.90;;;;;;5094540;28;20091;-76
2021/07/24 09:15:35;;;;;;;10.30;8.98;;;30.60;99.90;;;;;;5093113;28;20376;-76
2021/07/24 09:18:01;;;;;;;11.32;8.50;;;30.10;99.90;;;;;;5094108;28;20107;-76
2021/07/24 09:20:27;;;;;;;9.95;8.43;;;30.90;99.90;;;;;;5094525;28;20377;-76
2021/07/24 09:22:54;;;;;;;12.15;9.23;;;32.00;99.90;;;;;;5094470;28;20031;-76
2021/07/24 09:25:21;;;;;;;10.45;9.18;;;32.80;97.30;;;;;;5094416;28;20020;-76
2021/07/24 09:27:50;;;;;;;11.70;8.93;;;32.10;97.80;;;;;;5093789;28;20476;-76
2021/07/24 09:30:34;;;;;;;12.95;8.43;;;32.20;97.30;;;;;;5094322;28;20020;-76
2021/07/24 09:33:14;;;;;;;10.70;9.18;;;32.40;96.60;;;;;;5093919;28;20017;-76
2021/07/24 09:35:56;;;;;;;9.32;8.23;;;32.40;97.00;;;;;;5094198;28;20020;-76
2021/07/24 09:38:37;;;;;;;11.30;9.27;;;32.10;96.90;;;;;;5093872;28;20484;-76
2021/07/24 09:41:05;;;;;;;13.00;9.85;;;30.80;98.10;;;;;;5092997;28;20377;-71
2021/07/24 09:43:39;;;;;;;10.85;9.05;;;31.30;98.00;;;;;;5093821;28;20024;-71
2021/07/24 09:46:17;;;;;;;11.95;9.10;;;31.40;97.30;;;;;;5093796;28;20035;-71
2021/07/24 09:48:45;;;;;;;13.98;9.25;;;31.80;96.20;;;;;;5093655;28;20048;-71
2021/07/24 09:51:12;;;;;;;9.52;8.60;;;32.10;96.30;;;;;;5093976;28;20024;-71
2021/07/24 09:53:40;;;;;;;13.57;9.68;;;32.40;96.10;;;;;;5094009;28;20012;-71
2021/07/24 09:56:11;;;;;;;12.30;9.60;;;32.60;94.70;;;;;;5092536;28;20012;-71
2021/07/24 09:58:38;;;;;;;12.68;8.95;;;33.50;94.00;;;;;;5093705;28;20027;-71
2021/07/24 10:01:06;;;;;;;10.75;8.88;;;33.90;93.10;;;;;;5094021;28;20078;-71
2021/07/24 10:03:35;;;;;;;13.20;9.45;;;32.90;94.50;;;;;;5093918;28;20103;-71
2021/07/24 10:06:08;;;;;;;10.43;9.13;;;32.80;93.60;;;;;;5093694;28;20028;-71
2021/07/24 10:08:38;;;;;;;15.05;9.52;;;33.10;92.60;;;;;;5092342;28;20029;-71
2021/07/24 10:11:03;;;;;;;13.07;9.98;;;32.80;92.20;;;;;;5092400;28;20393;-70
2021/07/24 10:13:29;;;;;;;15.02;9.98;;;32.00;93.30;;;;;;5093836;28;20020;-70
2021/07/24 10:15:56;;;;;;;15.20;9.68;;;32.10;92.80;;;;;;5093854;28;20024;-71
2021/07/24 10:18:22;;;;;;;11.20;10.02;;;32.80;93.20;;;;;;5093786;28;20051;-70
2021/07/24 10:20:48;;;;;;;11.63;9.15;;;32.40;93.30;;;;;;5093809;28;20458;-70
2021/07/24 10:23:17;;;;;;;13.20;10.13;;;32.50;92.90;;;;;;5093489;28;20020;-70
2021/07/24 10:26:08;;;;;;;15.55;10.57;;;33.10;92.10;;;;;;5093528;28;20069;-70
2021/07/24 10:31:37;;;;;;;11.43;9.88;;;32.80;92.80;;;;;;5112165;27;20862;-71
2021/07/24 10:34:07;;;;;;;14.95;10.15;;;32.60;91.90;;;;;;5111866;28;20051;-71
2021/07/24 10:36:38;;;;;;;12.75;10.15;;;32.70;92.50;;;;;;5111286;28;20055;-71
2021/07/24 10:39:17;;;;;;;13.68;10.30;;;33.10;91.80;;;;;;5109866;28;20034;-71
2021/07/24 10:41:46;;;;;;;11.00;9.93;;;32.70;92.70;;;;;;5111726;28;20024;-71
2021/07/24 10:44:37;;;;;;;11.20;9.73;;;32.60;92.50;;;;;;5111724;28;20024;-71
2021/07/24 10:52:24;;;;;;;16.58;10.80;;;33.10;93.80;;;;;;5091765;28;20410;-71
2021/07/24 10:57:51;;;;;;;13.48;10.68;;;31.70;93.30;;;;;;5112169;27;20355;-71
2021/07/24 11:02:53;;;;;;;11.45;9.90;;;31.20;94.30;;;;;;5111908;27;20182;-71
2021/07/24 11:05:26;;;;;;;11.60;10.30;;;30.70;97.40;;;;;;5111573;28;20027;-71
2021/07/24 11:07:52;;;;;;;12.25;10.82;;;30.60;97.60;;;;;;5111821;28;20016;-70
2021/07/24 11:10:18;;;;;;;16.02;10.95;;;30.40;96.10;;;;;;5110001;28;20106;-70
2021/07/24 11:12:43;;;;;;;12.20;10.82;;;30.40;97.60;;;;;;5111427;28;20564;-71
2021/07/24 11:15:11;;;;;;;16.20;11.70;;;30.50;96.00;;;;;;5111598;28;20028;-70
2021/07/24 11:17:37;;;;;;;12.07;10.77;;;30.30;96.40;;;;;;5111646;28;20016;-71
2021/07/24 11:22:59;;;;;;;12.82;11.05;;;30.50;96.10;;;;;;5112162;27;20384;-71
2021/07/24 11:28:02;;;;;;;15.57;10.88;;;30.60;96.80;;;;;;5091785;28;20382;-71
2021/07/24 11:30:28;;;;;;;15.88;11.45;;;30.60;96.10;;;;;;5091004;28;20082;-70
2021/07/24 11:32:56;;;;;;;15.02;11.45;;;30.80;96.70;;;;;;5091240;28;20473;-70
2021/07/24 11:35:27;;;;;;;13.25;10.68;;;30.80;94.90;;;;;;5073052;28;20481;-70
2021/07/24 11:37:52;;;;;;;14.45;10.98;;;30.50;96.90;;;;;;5091396;28;20377;-70
2021/07/24 11:40:21;;;;;;;13.90;11.00;;;30.00;97.40;;;;;;5091337;28;20028;-70
2021/07/24 11:43:04;;;;;;;16.92;11.48;;;30.50;96.60;;;;;;5091047;28;20066;-70
2021/07/24 11:45:32;;;;;;;16.10;11.40;;;30.10;96.60;;;;;;5091018;28;20020;-70
2021/07/24 11:48:15;;;;;;;14.85;11.68;;;30.40;96.70;;;;;;5091161;28;20033;-70
2021/07/24 11:50:42;;;;;;;12.80;11.05;;;30.80;96.10;;;;;;5091152;28;20021;-70
2021/07/24 11:53:10;;;;;;;15.15;12.02;;;30.90;95.70;;;;;;5090585;28;20028;-70
2021/07/24 11:55:36;;;;;;;13.32;10.95;;;30.90;95.60;;;;;;5089582;28;20035;-70
2021/07/24 11:58:03;;;;;;;13.93;11.15;;;30.40;96.80;;;;;;5090453;28;20024;-70
2021/07/24 12:00:39;;;;;;;20.30;11.75;;;30.60;96.40;;;;;;5089809;28;20023;-70
2021/07/24 12:03:21;;;;;;;17.52;10.70;;;30.50;98.60;;;;;;5089488;28;20024;-70
2021/07/24 12:05:49;;;;;;;14.80;11.57;;;30.00;99.60;;;;;;5090547;28;20086;-70
2021/07/24 12:08:17;;;;;;;13.35;11.95;;;30.10;98.80;;;;;;5090815;28;20462;-70
2021/07/24 12:10:46;;;;;;;17.17;11.60;;;29.80;98.50;;;;;;5090814;28;20374;-70
2021/07/24 12:13:12;;;;;;;13.95;11.32;;;29.80;99.20;;;;;;5090771;28;20511;-70
2021/07/24 12:16:05;;;;;;;14.75;11.05;;;29.60;99.90;;;;;;5090678;28;20032;-70
2021/07/24 12:18:44;;;;;;;16.90;11.60;;;29.50;98.90;;;;;;5090331;28;20027;-70
2021/07/24 12:21:15;;;;;;;15.20;11.82;;;29.50;99.20;;;;;;5090615;28;20108;-70
2021/07/24 12:23:52;;;;;;;15.30;12.30;;;29.80;99.90;;;;;;5090529;28;20540;-70
2021/07/24 12:26:21;;;;;;;18.38;12.20;;;29.60;99.70;;;;;;5088768;28;20048;-70
2021/07/24 12:28:47;;;;;;;15.75;11.43;;;30.10;98.00;;;;;;5090414;28;20020;-70
2021/07/24 12:31:19;;;;;;;20.67;12.30;;;30.10;98.10;;;;;;5090073;28;20128;-70
2021/07/24 12:33:46;;;;;;;17.60;12.20;;;30.20;97.80;;;;;;5090018;28;20020;-70
2021/07/24 12:36:12;;;;;;;15.00;12.80;;;29.60;98.70;;;;;;5090288;28;20061;-69
2021/07/24 12:38:38;;;;;;;14.77;13.18;;;28.90;99.90;;;;;;5080760;28;20055;-69
2021/07/24 12:41:05;;;;;;;19.58;13.55;;;28.50;99.90;;;;;;5076752;28;20037;-69
2021/07/24 12:43:32;;;;;;;19.20;13.32;;;28.00;99.90;;;;;;5076392;28;20024;-71
2021/07/24 12:46:14;;;;;;;21.75;13.50;;;27.90;99.90;;;;;;5076444;28;20074;-71
2021/07/24 12:48:45;;;;;;;19.60;14.40;;;27.70;99.90;;;;;;5076640;28;20017;-71
2021/07/24 12:51:24;;;;;;;17.67;13.68;;;27.70;99.90;;;;;;5076579;28;20017;-71
2021/07/24 12:53:52;;;;;;;16.63;13.57;;;27.60;99.90;;;;;;5076496;28;20021;-71
2021/07/24 12:56:18;;;;;;;20.60;14.60;;;27.70;99.90;;;;;;5074661;28;20020;-71